createdAt,value
2019-03-11T00:00:23.442Z,23.22
2019-03-11T00:02:53.323Z,23.83
2019-03-11T00:05:22.751Z,20.12
2019-03-11T00:07:52.231Z,18.62
2019-03-11T00:10:22.139Z,14.25
2019-03-11T00:12:51.605Z,14.20
2019-03-11T00:15:21.335Z,12.98
2019-03-11T00:17:50.807Z,12.37
2019-03-11T00:20:20.293Z,9.10
2019-03-11T00:22:49.994Z,11.55
2019-03-11T00:25:19.459Z,10.32
2019-03-11T00:27:48.850Z,10.65
2019-03-11T00:30:18.285Z,10.40
2019-03-11T00:32:47.709Z,13.15
2019-03-11T00:35:17.135Z,10.37
2019-03-11T00:37:46.549Z,10.50
2019-03-11T00:40:16.092Z,9.40
2019-03-11T00:42:45.786Z,8.80
2019-03-11T00:45:15.725Z,9.15
2019-03-11T00:47:45.063Z,9.43
2019-03-11T00:50:15.315Z,8.75
2019-03-11T00:52:44.757Z,8.85
2019-03-11T00:55:14.394Z,8.65
2019-03-11T00:57:43.779Z,8.98
2019-03-11T01:00:27.541Z,8.93
2019-03-11T01:02:57.261Z,9.30
2019-03-11T01:05:26.687Z,9.40
2019-03-11T01:07:56.105Z,8.78
2019-03-11T01:10:25.501Z,8.05
2019-03-11T01:12:54.944Z,9.25
2019-03-11T01:15:24.398Z,9.18
2019-03-11T01:17:53.810Z,9.40
2019-03-11T01:20:23.245Z,9.25
2019-03-11T01:22:52.719Z,9.35
2019-03-11T01:25:22.082Z,8.80
2019-03-11T01:27:51.520Z,8.83
2019-03-11T01:30:20.942Z,8.60
2019-03-11T01:32:50.324Z,8.43
2019-03-11T01:35:19.755Z,7.83
2019-03-11T01:37:49.148Z,7.90
2019-03-11T01:40:18.641Z,7.53
2019-03-11T01:42:48.034Z,7.47
2019-03-11T01:45:17.601Z,7.37
2019-03-11T01:47:47.292Z,6.92
2019-03-11T01:50:16.824Z,6.70
2019-03-11T01:52:46.340Z,7.45
2019-03-11T01:55:15.782Z,7.20
2019-03-11T01:57:45.234Z,7.67
2019-03-11T02:00:15.450Z,6.85
2019-03-11T02:02:44.908Z,7.33
2019-03-11T02:05:14.323Z,7.37
2019-03-11T02:07:43.714Z,6.20
2019-03-11T02:10:13.960Z,5.87
2019-03-11T02:12:43.366Z,6.53
2019-03-11T02:15:13.934Z,6.65
2019-03-11T02:17:43.390Z,7.12
2019-03-11T02:20:14.015Z,5.55
2019-03-11T02:22:43.452Z,5.30
2019-03-11T02:25:13.396Z,5.65
2019-03-11T02:27:42.832Z,5.80
2019-03-11T02:30:12.972Z,6.67
2019-03-11T02:32:42.391Z,7.13
2019-03-11T02:35:12.410Z,6.80
2019-03-11T02:37:41.864Z,8.28
2019-03-11T02:40:12.205Z,7.05
2019-03-11T02:42:41.608Z,7.70
2019-03-11T02:45:11.035Z,8.55
2019-03-11T02:47:40.446Z,6.33
2019-03-11T02:50:09.969Z,8.30
2019-03-11T02:52:39.425Z,8.00
2019-03-11T02:55:09.103Z,8.23
2019-03-11T02:57:38.506Z,8.85
2019-03-11T03:00:09.127Z,8.55
2019-03-11T03:02:48.263Z,9.05
2019-03-11T03:05:30.807Z,8.75
2019-03-11T03:08:00.306Z,8.58
2019-03-11T03:10:29.709Z,8.20
2019-03-11T03:12:59.106Z,8.30
2019-03-11T03:15:28.518Z,7.92
2019-03-11T03:17:57.947Z,7.25
2019-03-11T03:20:27.364Z,7.47
2019-03-11T03:22:56.770Z,6.97
2019-03-11T03:25:33.745Z,7.33
2019-03-11T03:27:57.367Z,8.30
2019-03-11T03:30:27.002Z,8.80
2019-03-11T03:32:56.427Z,8.80
2019-03-11T03:35:25.850Z,9.25
2019-03-11T03:37:55.246Z,9.40
2019-03-11T03:40:24.687Z,11.33
2019-03-11T03:42:54.478Z,12.10
2019-03-11T03:45:28.663Z,12.28
2019-03-11T03:47:58.281Z,12.43
2019-03-11T03:50:28.495Z,11.40
2019-03-11T03:52:57.950Z,11.63
2019-03-11T03:55:27.378Z,11.25
2019-03-11T03:57:57.153Z,11.05
2019-03-11T04:00:26.554Z,9.68
2019-03-11T04:02:55.983Z,11.22
2019-03-11T04:05:25.511Z,9.93
2019-03-11T04:07:55.089Z,11.10
2019-03-11T04:10:24.525Z,9.80
2019-03-11T04:12:53.987Z,11.03
2019-03-11T04:15:23.507Z,10.88
2019-03-11T04:17:53.009Z,9.88
2019-03-11T04:20:22.582Z,10.45
2019-03-11T04:22:52.323Z,9.65
2019-03-11T04:25:21.772Z,11.18
2019-03-11T04:27:51.240Z,10.88
2019-03-11T04:30:22.318Z,10.72
2019-03-11T04:32:51.753Z,11.12
2019-03-11T04:35:21.157Z,11.03
2019-03-11T04:37:50.505Z,10.68
2019-03-11T04:40:19.928Z,10.60
2019-03-11T04:42:49.331Z,8.68
2019-03-11T04:45:19.129Z,10.13
2019-03-11T04:47:48.523Z,10.18
2019-03-11T04:50:17.988Z,10.03
2019-03-11T04:52:47.576Z,10.55
2019-03-11T04:55:17.727Z,7.95
2019-03-11T04:57:50.212Z,8.15
2019-03-11T05:00:24.784Z,10.23
2019-03-11T05:02:54.186Z,8.88
2019-03-11T05:05:23.672Z,9.73
2019-03-11T05:07:53.126Z,9.15
2019-03-11T05:10:22.553Z,9.35
2019-03-11T05:12:52.002Z,7.07
2019-03-11T05:15:21.440Z,6.47
2019-03-11T05:17:50.944Z,7.65
2019-03-11T05:20:20.584Z,8.20
2019-03-11T05:22:50.080Z,7.55
2019-03-11T05:25:19.500Z,7.25
2019-03-11T05:27:48.966Z,7.60
2019-03-11T05:30:18.476Z,6.78
2019-03-11T05:32:47.908Z,6.60
2019-03-11T05:35:17.439Z,6.03
2019-03-11T05:37:46.874Z,5.33
2019-03-11T05:40:16.295Z,6.90
2019-03-11T05:42:45.885Z,5.87
2019-03-11T05:45:15.508Z,6.40
2019-03-11T05:47:44.922Z,6.37
2019-03-11T05:50:14.690Z,6.20
2019-03-11T05:52:44.183Z,5.57
2019-03-11T05:55:13.872Z,4.20
2019-03-11T05:57:43.340Z,5.25
2019-03-11T06:00:15.937Z,5.70
2019-03-11T06:02:45.422Z,5.67
2019-03-11T06:05:15.059Z,4.97
2019-03-11T06:07:44.549Z,5.58
2019-03-11T06:10:14.486Z,5.78
2019-03-11T06:12:43.945Z,5.20
2019-03-11T06:15:13.565Z,5.00
2019-03-11T06:17:43.419Z,4.35
2019-03-11T06:20:36.893Z,5.25
2019-03-11T06:23:07.748Z,4.90
2019-03-11T06:25:37.162Z,4.35
2019-03-11T06:28:05.988Z,4.40
2019-03-11T06:30:35.530Z,5.05
2019-03-11T06:33:05.012Z,5.15
2019-03-11T06:35:34.474Z,4.70
2019-03-11T06:38:03.897Z,5.40
2019-03-11T06:40:33.594Z,5.37
2019-03-11T06:43:02.997Z,5.40
2019-03-11T06:45:32.579Z,5.10
2019-03-11T06:48:02.038Z,4.95
2019-03-11T06:50:31.437Z,4.60
2019-03-11T06:53:00.867Z,5.15
2019-03-11T06:55:30.371Z,5.05
2019-03-11T06:57:59.797Z,5.53
2019-03-11T07:00:29.183Z,5.20
2019-03-11T07:02:58.677Z,4.70
2019-03-11T07:05:28.051Z,4.53
2019-03-11T07:07:57.536Z,5.35
2019-03-11T07:10:26.935Z,5.00
2019-03-11T07:12:56.371Z,4.20
2019-03-11T07:15:25.723Z,4.53
2019-03-11T07:17:55.130Z,4.60
2019-03-11T07:20:24.614Z,4.75
2019-03-11T07:22:54.070Z,4.47
2019-03-11T07:25:23.479Z,5.00
2019-03-11T07:27:53.084Z,4.60
2019-03-11T07:30:22.436Z,3.87
2019-03-11T07:32:51.925Z,5.10
2019-03-11T07:35:21.408Z,4.35
2019-03-11T07:37:50.927Z,2.40
2019-03-11T07:40:29.145Z,1.30
2019-03-11T07:42:51.576Z,1.63
2019-03-11T07:45:21.032Z,2.12
2019-03-11T07:47:50.535Z,1.45
2019-03-11T07:50:19.977Z,1.03
2019-03-11T07:52:49.351Z,1.90
2019-03-11T07:55:18.913Z,1.70
2019-03-11T07:57:48.326Z,1.60
2019-03-11T08:00:17.788Z,1.25
2019-03-11T08:02:47.446Z,1.25
2019-03-11T08:05:16.860Z,1.30
2019-03-11T08:07:46.331Z,1.50
2019-03-11T08:10:15.866Z,1.75
2019-03-11T08:12:45.344Z,1.98
2019-03-11T08:15:14.807Z,1.70
2019-03-11T08:17:44.286Z,2.05
2019-03-11T08:20:13.694Z,2.12
2019-03-11T08:22:43.241Z,2.37
2019-03-11T08:25:13.110Z,1.82
2019-03-11T08:27:42.669Z,2.02
2019-03-11T08:30:11.709Z,2.60
2019-03-11T08:32:41.104Z,2.45
2019-03-11T08:35:10.564Z,2.60
2019-03-11T08:37:39.960Z,2.50
2019-03-11T08:40:10.483Z,2.47
2019-03-11T08:42:39.873Z,2.70
2019-03-11T08:45:10.265Z,2.50
2019-03-11T08:47:39.679Z,4.00
2019-03-11T08:50:10.059Z,2.50
2019-03-11T08:52:39.444Z,2.80
2019-03-11T08:55:08.767Z,2.80
2019-03-11T08:57:40.385Z,1.92
2019-03-11T09:00:09.104Z,2.75
2019-03-11T09:02:38.061Z,2.30
2019-03-11T09:05:08.733Z,2.00
2019-03-11T09:07:38.120Z,2.00
2019-03-11T09:10:09.589Z,2.12
2019-03-11T09:12:39.154Z,2.08
2019-03-11T09:15:10.533Z,2.08
2019-03-11T09:17:39.921Z,2.10
2019-03-11T09:20:09.845Z,1.75
2019-03-11T09:22:39.426Z,1.80
2019-03-11T09:25:11.314Z,2.30
2019-03-11T09:27:40.276Z,1.90
2019-03-11T09:30:10.103Z,1.90
2019-03-11T09:32:39.577Z,1.60
2019-03-11T09:35:09.113Z,1.80
2019-03-11T09:37:38.521Z,1.25
2019-03-11T09:40:09.266Z,1.60
2019-03-11T09:42:38.761Z,1.45
2019-03-11T09:45:09.395Z,1.72
2019-03-11T09:47:38.833Z,1.40
2019-03-11T09:50:08.579Z,1.52
2019-03-11T09:52:38.003Z,1.40
2019-03-11T09:55:08.767Z,1.50
2019-03-11T09:57:38.228Z,1.98
2019-03-11T10:00:09.262Z,1.72
2019-03-11T10:02:38.684Z,1.90
2019-03-11T10:05:08.913Z,1.60
2019-03-11T10:07:38.333Z,1.67
2019-03-11T10:10:09.422Z,1.77
2019-03-11T10:12:38.862Z,1.70
2019-03-11T10:15:09.962Z,1.82
2019-03-11T10:17:39.453Z,1.50
2019-03-11T10:20:09.544Z,1.30
2019-03-11T10:22:38.331Z,1.30
2019-03-11T10:25:08.504Z,1.05
2019-03-11T10:27:37.996Z,1.30
2019-03-11T10:30:07.323Z,1.50
2019-03-11T10:32:36.782Z,1.60
2019-03-11T10:35:26.806Z,1.42
2019-03-11T10:37:38.782Z,1.50
2019-03-11T10:40:10.604Z,1.30
2019-03-11T10:42:40.008Z,1.50
2019-03-11T10:45:09.811Z,1.45
2019-03-11T10:47:39.488Z,1.60
2019-03-11T10:50:10.018Z,1.55
2019-03-11T10:52:39.450Z,1.50
2019-03-11T10:55:10.382Z,1.27
2019-03-11T10:57:39.838Z,1.13
2019-03-11T11:00:12.648Z,1.32
2019-03-11T11:02:41.588Z,1.22
2019-03-11T11:05:12.381Z,1.50
2019-03-11T11:07:42.180Z,1.32
2019-03-11T11:10:12.240Z,1.40
2019-03-11T11:12:41.055Z,1.50
2019-03-11T11:15:16.484Z,1.30
2019-03-11T11:17:45.656Z,1.50
2019-03-11T11:20:14.802Z,1.47
2019-03-11T11:22:44.458Z,1.42
2019-03-11T11:25:16.610Z,1.50
2019-03-11T11:27:46.109Z,1.40
2019-03-11T11:30:17.949Z,1.30
2019-03-11T11:32:46.862Z,1.50
2019-03-11T11:35:16.678Z,1.70
2019-03-11T11:37:45.547Z,1.52
2019-03-11T11:40:17.553Z,1.80
2019-03-11T11:42:47.042Z,1.40
2019-03-11T11:45:16.478Z,1.82
2019-03-11T11:47:46.290Z,1.90
2019-03-11T11:50:17.472Z,1.82
2019-03-11T11:52:47.004Z,1.60
2019-03-11T11:55:17.133Z,1.93
2019-03-11T11:57:45.956Z,2.02
2019-03-11T12:00:18.921Z,1.80
2019-03-11T12:02:48.652Z,1.83
2019-03-11T12:05:18.411Z,1.85
2019-03-11T12:07:48.122Z,1.98
2019-03-11T12:10:18.415Z,1.82
2019-03-11T12:12:48.247Z,1.77
2019-03-11T12:15:17.823Z,1.90
2019-03-11T12:17:47.331Z,2.17
2019-03-11T12:20:17.186Z,1.80
2019-03-11T12:22:46.630Z,2.08
2019-03-11T12:25:17.096Z,2.50
2019-03-11T12:27:53.838Z,2.50
2019-03-11T12:30:22.215Z,2.40
2019-03-11T12:32:51.784Z,2.20
2019-03-11T12:35:21.231Z,2.33
2019-03-11T12:37:50.664Z,2.50
2019-03-11T12:40:20.298Z,2.30
2019-03-11T12:42:49.726Z,2.50
2019-03-11T12:45:18.595Z,2.47
2019-03-11T12:47:47.497Z,2.80
2019-03-11T12:50:18.099Z,2.60
2019-03-11T12:52:47.276Z,2.60
2019-03-11T12:55:16.782Z,2.55
2019-03-11T12:57:46.216Z,3.00
2019-03-11T13:00:17.295Z,3.30
2019-03-11T13:02:46.808Z,3.37
2019-03-11T13:05:16.070Z,2.87
2019-03-11T13:07:45.839Z,2.90
2019-03-11T13:10:16.983Z,3.30
2019-03-11T13:12:47.093Z,3.00
2019-03-11T13:15:17.402Z,3.20
2019-03-11T13:17:46.911Z,3.27
2019-03-11T13:20:37.213Z,3.08
2019-03-11T13:23:06.694Z,2.95
2019-03-11T13:25:36.163Z,2.98
2019-03-11T13:28:05.893Z,3.02
2019-03-11T13:30:35.279Z,3.37
2019-03-11T13:33:04.731Z,3.62
2019-03-11T13:35:34.461Z,3.20
2019-03-11T13:38:04.015Z,3.30
2019-03-11T13:40:33.655Z,3.42
2019-03-11T13:43:03.131Z,3.58
2019-03-11T13:45:32.638Z,3.75
2019-03-11T13:48:02.045Z,4.12
2019-03-11T13:50:31.631Z,3.90
2019-03-11T13:53:01.047Z,3.98
2019-03-11T13:55:30.502Z,4.25
2019-03-11T13:57:59.966Z,4.07
2019-03-11T14:00:29.757Z,4.05
2019-03-11T14:02:59.134Z,4.00
2019-03-11T14:05:28.850Z,3.58
2019-03-11T14:07:57.666Z,3.77
2019-03-11T14:10:27.508Z,3.75
2019-03-11T14:12:56.966Z,3.70
2019-03-11T14:15:25.815Z,3.40
2019-03-11T14:17:54.765Z,3.20
2019-03-11T14:20:24.299Z,2.20
2019-03-11T14:22:53.771Z,3.40
2019-03-11T14:25:23.221Z,3.40
2019-03-11T14:27:53.236Z,3.70
2019-03-11T14:30:22.681Z,3.30
2019-03-11T14:32:52.738Z,3.15
2019-03-11T14:35:22.478Z,3.20
2019-03-11T14:37:51.958Z,3.30
2019-03-11T14:40:21.413Z,3.60
2019-03-11T14:42:50.874Z,3.50
2019-03-11T14:45:20.550Z,3.77
2019-03-11T14:47:49.961Z,3.58
2019-03-11T14:50:19.421Z,3.55
2019-03-11T14:52:48.988Z,3.70
2019-03-11T14:55:18.488Z,4.08
2019-03-11T14:57:47.960Z,4.10
2019-03-11T15:00:18.555Z,3.70
2019-03-11T15:02:48.952Z,4.30
2019-03-11T15:05:18.696Z,3.75
2019-03-11T15:07:48.172Z,3.83
2019-03-11T15:10:18.303Z,3.77
2019-03-11T15:12:47.765Z,4.78
2019-03-11T15:15:17.944Z,4.70
2019-03-11T15:17:47.376Z,4.50
2019-03-11T15:20:16.902Z,4.80
2019-03-11T15:22:46.446Z,5.10
2019-03-11T15:25:16.713Z,5.35
2019-03-11T15:27:46.135Z,4.87
2019-03-11T15:30:17.088Z,5.03
2019-03-11T15:32:46.583Z,4.33
2019-03-11T15:35:16.133Z,5.47
2019-03-11T15:37:45.898Z,3.63
2019-03-11T15:40:15.310Z,4.23
2019-03-11T15:42:44.916Z,5.40
2019-03-11T15:45:14.956Z,5.17
2019-03-11T15:47:44.466Z,5.08
2019-03-11T15:50:16.387Z,4.50
2019-03-11T15:52:45.913Z,5.10
2019-03-11T15:55:16.002Z,4.13
2019-03-11T15:57:45.648Z,6.05
2019-03-11T16:00:17.614Z,5.03
2019-03-11T16:02:47.061Z,3.80
2019-03-11T16:05:17.952Z,4.80
2019-03-11T16:07:47.522Z,5.00
2019-03-11T16:10:17.535Z,5.92
2019-03-11T16:12:47.226Z,5.55
2019-03-11T16:15:17.219Z,5.22
2019-03-11T16:17:46.974Z,5.12
2019-03-11T16:20:17.622Z,5.33
2019-03-11T16:22:47.406Z,5.13
2019-03-11T16:25:16.866Z,5.12
2019-03-11T16:27:46.445Z,5.62
2019-03-11T16:30:18.087Z,5.00
2019-03-11T16:32:58.393Z,5.53
2019-03-11T16:35:19.557Z,5.10
2019-03-11T16:37:49.048Z,5.47
2019-03-11T16:40:18.826Z,5.60
2019-03-11T16:42:48.279Z,5.83
2019-03-11T16:45:18.867Z,6.22
2019-03-11T16:47:48.346Z,5.97
2019-03-11T16:50:17.974Z,6.00
2019-03-11T16:52:47.469Z,6.87
2019-03-11T16:55:18.607Z,6.67
2019-03-11T16:57:48.072Z,7.22
2019-03-11T17:00:20.340Z,6.87
2019-03-11T17:02:49.846Z,8.03
2019-03-11T17:05:19.465Z,8.75
2019-03-11T17:07:48.897Z,8.98
2019-03-11T17:10:18.391Z,10.13
2019-03-11T17:12:47.838Z,9.70
2019-03-11T17:15:17.623Z,10.47
2019-03-11T17:17:47.057Z,11.30
2019-03-11T17:20:16.607Z,12.10
2019-03-11T17:22:46.217Z,11.95
2019-03-11T17:25:22.364Z,13.50
2019-03-11T17:27:51.762Z,11.85
2019-03-11T17:30:21.224Z,11.43
2019-03-11T17:32:50.609Z,12.13
2019-03-11T17:35:20.132Z,11.70
2019-03-11T17:37:49.538Z,13.05
2019-03-11T17:40:19.510Z,11.05
2019-03-11T17:42:49.027Z,12.35
2019-03-11T17:45:18.510Z,12.68
2019-03-11T17:47:48.248Z,13.15
2019-03-11T17:50:17.785Z,13.75
2019-03-11T17:52:47.588Z,14.10
2019-03-11T17:55:17.187Z,14.87
2019-03-11T17:57:46.928Z,14.85
2019-03-11T18:00:21.107Z,16.15
2019-03-11T18:02:51.161Z,16.05
2019-03-11T18:05:20.753Z,15.53
2019-03-11T18:07:50.277Z,17.05
2019-03-11T18:10:19.650Z,16.37
2019-03-11T18:12:49.166Z,15.65
2019-03-11T18:15:18.684Z,15.85
2019-03-11T18:17:48.140Z,16.57
2019-03-11T18:20:17.776Z,15.45
2019-03-11T18:22:47.235Z,16.50
2019-03-11T18:25:16.891Z,15.83
2019-03-11T18:27:46.348Z,17.23
2019-03-11T18:30:19.230Z,15.58
2019-03-11T18:32:48.928Z,17.48
2019-03-11T18:35:18.405Z,17.15
2019-03-11T18:37:47.791Z,17.35
2019-03-11T18:40:17.348Z,18.25
2019-03-11T18:42:47.063Z,20.02
2019-03-11T18:45:16.793Z,22.30
2019-03-11T18:47:46.354Z,23.07
2019-03-11T18:50:15.886Z,23.40
2019-03-11T18:52:45.376Z,24.50
2019-03-11T18:55:15.608Z,22.75
2019-03-11T18:57:45.173Z,24.20
2019-03-11T19:00:17.069Z,24.40
2019-03-11T19:02:46.501Z,24.67
2019-03-11T19:05:16.380Z,24.40
2019-03-11T19:07:46.319Z,24.33
2019-03-11T19:10:16.934Z,23.70
2019-03-11T19:12:46.560Z,23.12
2019-03-11T19:15:17.019Z,21.42
2019-03-11T19:17:46.557Z,18.87
2019-03-11T19:20:17.392Z,16.40
2019-03-11T19:22:47.181Z,19.25
2019-03-11T19:25:17.025Z,20.50
2019-03-11T19:27:47.242Z,19.42
2019-03-11T19:30:18.614Z,21.02
2019-03-11T19:32:48.091Z,18.57
2019-03-11T19:35:18.706Z,21.23
2019-03-11T19:37:48.238Z,22.07
2019-03-11T19:40:18.406Z,18.90
2019-03-11T19:42:47.866Z,20.35
2019-03-11T19:45:17.621Z,17.60
2019-03-11T19:47:47.103Z,16.75
2019-03-11T19:50:17.355Z,74.82
2019-03-11T19:52:57.689Z,19.65
2019-03-11T19:55:18.159Z,20.57
2019-03-11T19:57:47.489Z,18.47
2019-03-11T20:00:18.378Z,19.37
2019-03-11T20:02:48.218Z,18.65
2019-03-11T20:05:19.044Z,21.97
2019-03-11T20:07:48.592Z,21.37
2019-03-11T20:10:18.081Z,20.30
2019-03-11T20:12:47.539Z,20.43
2019-03-11T20:15:17.026Z,17.42
2019-03-11T20:17:46.857Z,20.43
2019-03-11T20:20:16.606Z,20.68
2019-03-11T20:22:46.103Z,20.77
2019-03-11T20:25:18.557Z,21.23
2019-03-11T20:27:48.131Z,22.77
2019-03-11T20:30:19.451Z,24.12
2019-03-11T20:32:48.889Z,23.00
2019-03-11T20:35:18.383Z,22.70
2019-03-11T20:37:47.920Z,20.27
2019-03-11T20:40:17.490Z,25.10
2019-03-11T20:42:47.056Z,29.05
2019-03-11T20:45:16.474Z,25.90
2019-03-11T20:47:45.940Z,29.03
2019-03-11T20:50:15.494Z,26.65
2019-03-11T20:52:45.094Z,25.15
2019-03-11T20:55:15.655Z,26.27
2019-03-11T20:57:45.075Z,25.13
2019-03-11T21:00:16.784Z,26.82
2019-03-11T21:02:46.535Z,27.50
2019-03-11T21:05:17.042Z,31.97
2019-03-11T21:07:46.631Z,28.60
2019-03-11T21:10:16.516Z,32.28
2019-03-11T21:12:45.875Z,30.70
2019-03-11T21:15:15.533Z,27.50
2019-03-11T21:17:45.023Z,31.25
2019-03-11T21:20:14.633Z,29.63
2019-03-11T21:22:44.114Z,32.80
2019-03-11T21:25:15.356Z,34.65
2019-03-11T21:27:44.899Z,34.53
2019-03-11T21:30:16.684Z,33.58
2019-03-11T21:32:46.103Z,38.30
2019-03-11T21:35:15.782Z,36.45
2019-03-11T21:37:45.466Z,33.73
2019-03-11T21:40:16.118Z,33.92
2019-03-11T21:42:46.106Z,36.05
2019-03-11T21:45:15.700Z,34.90
2019-03-11T21:47:45.245Z,35.17
2019-03-11T21:50:19.394Z,34.58
2019-03-11T21:52:48.958Z,35.58
2019-03-11T21:55:18.441Z,36.27
2019-03-11T21:57:47.886Z,37.80
2019-03-11T22:00:33.020Z,34.53
2019-03-11T22:02:51.586Z,37.03
2019-03-11T22:05:21.013Z,38.08
2019-03-11T22:07:50.525Z,33.35
2019-03-11T22:10:20.369Z,34.50
2019-03-11T22:12:49.844Z,32.47
2019-03-11T22:15:19.408Z,36.05
2019-03-11T22:17:48.866Z,36.40
2019-03-11T22:20:18.804Z,32.85
2019-03-11T22:22:48.218Z,36.15
2019-03-11T22:25:17.645Z,36.65
2019-03-11T22:27:47.112Z,40.52
2019-03-11T22:30:20.368Z,36.15
2019-03-11T22:32:49.848Z,35.48
2019-03-11T22:35:19.372Z,35.45
2019-03-11T22:37:48.837Z,35.45
2019-03-11T22:40:18.426Z,30.23
2019-03-11T22:42:47.896Z,36.70
2019-03-11T22:45:19.778Z,32.50
2019-03-11T22:47:49.634Z,35.08
2019-03-11T22:50:19.156Z,35.58
2019-03-11T22:52:48.597Z,35.38
2019-03-11T22:55:18.735Z,35.20
2019-03-11T22:57:48.298Z,33.13
2019-03-11T23:00:26.837Z,29.27
2019-03-11T23:02:56.306Z,33.48
2019-03-11T23:05:25.761Z,34.30
2019-03-11T23:07:55.146Z,35.05
2019-03-11T23:10:24.620Z,31.48
2019-03-11T23:12:54.053Z,34.05
2019-03-11T23:15:23.461Z,33.33
2019-03-11T23:17:52.889Z,32.15
2019-03-11T23:20:22.344Z,32.38
2019-03-11T23:22:51.792Z,30.57
2019-03-11T23:25:21.189Z,30.10
2019-03-11T23:27:50.641Z,31.10
2019-03-11T23:30:20.140Z,29.37
2019-03-11T23:32:49.528Z,26.62
2019-03-11T23:35:18.947Z,28.00
2019-03-11T23:37:48.400Z,27.10
2019-03-11T23:40:17.850Z,27.30
2019-03-11T23:42:47.263Z,24.27
2019-03-11T23:45:16.706Z,21.30
2019-03-11T23:47:46.243Z,25.12
2019-03-11T23:50:19.002Z,23.97
2019-03-11T23:52:46.793Z,20.35
2019-03-11T23:55:16.191Z,21.20
2019-03-11T23:57:45.734Z,22.98
